Time;durP1;ratioP1;P1;durP2;ratioP2;P2;SDS_P1;SDS_P2;PMS_P1;PMS_P2;Temp;Humidity;BMP_temperature;BMP_pressure;BME280_temperature;BME280_humidity;BME280_pressure;Samples;Min_cycle;Max_cycle;Signal;HPM_P1;HPM_P2
2022/04/19 00:01:25;;;;;;;6.40;4.80;;;;;;;;;;4986437;28;20227;-77
2022/04/19 00:03:53;;;;;;;6.37;4.60;;;;;;;;;;4987278;28;20277;-79
2022/04/19 00:06:21;;;;;;;6.47;4.47;;;;;;;;;;5002934;28;20219;-78
2022/04/19 00:08:48;;;;;;;7.10;4.50;;;;;;;;;;4990085;28;20266;-78
2022/04/19 00:11:13;;;;;;;7.17;5.03;;;;;;;;;;4985118;28;20251;-78
2022/04/19 00:13:39;;;;;;;5.87;4.60;;;;;;;;;;4986498;28;20224;-76
2022/04/19 00:16:04;;;;;;;5.33;4.10;;;;;;;;;;4988147;28;20220;-78
2022/04/19 00:18:32;;;;;;;5.33;4.33;;;;;;;;;;5009408;28;20232;-79
2022/04/19 00:20:59;;;;;;;6.77;4.00;;;;;;;;;;5005849;28;20224;-79
2022/04/19 00:23:28;;;;;;;6.93;4.40;;;;;;;;;;5006003;28;20311;-79
2022/04/19 00:25:54;;;;;;;6.53;4.40;;;;;;;;;;5005853;28;20216;-78
2022/04/19 00:28:22;;;;;;;5.67;4.40;;;;;;;;;;4986136;28;20628;-79
2022/04/19 00:30:47;;;;;;;5.87;4.57;;;;;;;;;;4974770;28;20298;-79
2022/04/19 00:33:13;;;;;;;6.97;4.20;;;;;;;;;;4999533;28;20228;-78
2022/04/19 00:35:41;;;;;;;6.73;4.40;;;;;;;;;;4984662;28;20216;-77
2022/04/19 00:38:09;;;;;;;6.63;4.03;;;;;;;;;;4992548;28;20258;-78
2022/04/19 00:40:35;;;;;;;6.63;4.30;;;;;;;;;;5004580;28;20220;-78
2022/04/19 00:43:03;;;;;;;5.93;4.40;;;;;;;;;;4983921;28;20239;-76
2022/04/19 00:45:31;;;;;;;5.43;3.80;;;;;;;;;;4967068;28;20661;-78
2022/04/19 00:47:57;;;;;;;5.33;4.20;;;;;;;;;;4982412;28;20228;-77
2022/04/19 00:50:26;;;;;;;4.40;4.00;;;;;;;;;;4999459;28;20307;-77
2022/04/19 00:52:56;;;;;;;5.27;4.00;;;;;;;;;;5012937;28;20228;-77
2022/04/19 00:55:24;;;;;;;5.23;4.00;;;;;;;;;;4981442;28;20224;-78
2022/04/19 00:57:51;;;;;;;4.70;3.70;;;;;;;;;;5000816;28;20305;-78
2022/04/19 01:00:21;;;;;;;5.27;3.80;;;;;;;;;;5009066;28;20228;-75
2022/04/19 01:03:08;;;;;;;5.27;4.13;;;;;;;;;;5003230;28;20220;-77
2022/04/19 01:05:35;;;;;;;8.27;4.33;;;;;;;;;;4996651;28;20254;-76
2022/04/19 01:08:01;;;;;;;5.20;4.00;;;;;;;;;;5015558;28;20212;-76
2022/04/19 01:10:30;;;;;;;6.93;4.10;;;;;;;;;;4994490;28;20220;-76
2022/04/19 01:15:50;;;;;;;4.67;4.03;;;;;;;;;;5022227;28;20231;-78
2022/04/19 01:18:20;;;;;;;4.87;3.53;;;;;;;;;;5014027;28;20306;-77
2022/04/19 01:20:50;;;;;;;5.83;4.13;;;;;;;;;;5007366;28;20235;-77
2022/04/19 01:23:20;;;;;;;4.50;4.07;;;;;;;;;;5002091;28;20278;-77
2022/04/19 01:25:48;;;;;;;4.50;4.10;;;;;;;;;;5037832;28;20204;-76
2022/04/19 01:28:18;;;;;;;4.53;4.13;;;;;;;;;;5002972;28;20220;-75
2022/04/19 01:30:44;;;;;;;6.37;4.40;;;;;;;;;;5000330;28;20223;-76
2022/04/19 01:33:14;;;;;;;5.63;4.40;;;;;;;;;;4995615;28;20220;-77
2022/04/19 01:35:41;;;;;;;5.77;4.70;;;;;;;;;;4984918;28;20231;-77
2022/04/19 01:38:12;;;;;;;5.63;4.47;;;;;;;;;;4997763;28;20284;-76
2022/04/19 01:40:40;;;;;;;5.43;4.30;;;;;;;;;;4985483;28;20713;-77
2022/04/19 01:43:09;;;;;;;4.60;4.07;;;;;;;;;;5003869;28;20212;-77
2022/04/19 01:45:46;;;;;;;4.87;4.10;;;;;;;;;;5006900;28;20225;-76
2022/04/19 01:48:18;;;;;;;5.20;4.03;;;;;;;;;;5005081;28;20216;-76
2022/04/19 01:50:46;;;;;;;5.63;4.53;;;;;;;;;;5021345;28;20242;-77
2022/04/19 01:53:14;;;;;;;10.97;5.10;;;;;;;;;;4996974;28;20228;-77
2022/04/19 01:55:47;;;;;;;5.10;4.20;;;;;;;;;;4993657;28;20231;-78
2022/04/19 01:58:38;;;;;;;4.93;4.40;;;;;;;;;;5009394;28;20216;-77
2022/04/19 02:01:06;;;;;;;6.83;4.20;;;;;;;;;;5015550;28;20215;-77
2022/04/19 02:03:35;;;;;;;5.10;4.10;;;;;;;;;;5008947;28;20602;-78
2022/04/19 02:06:06;;;;;;;5.03;4.30;;;;;;;;;;4991521;28;20589;-77
2022/04/19 02:08:37;;;;;;;7.10;4.60;;;;;;;;;;5005569;28;20219;-77
2022/04/19 02:11:03;;;;;;;5.80;4.50;;;;;;;;;;5043950;28;20232;-77
2022/04/19 02:13:30;;;;;;;6.43;4.03;;;;;;;;;;5030511;28;20264;-76
2022/04/19 02:16:21;;;;;;;6.13;4.30;;;;;;;;;;4994791;28;20221;-75
2022/04/19 02:18:52;;;;;;;7.50;4.67;;;;;;;;;;5009548;28;20226;-76
2022/04/19 02:21:23;;;;;;;4.80;4.13;;;;;;;;;;5003307;28;20655;-77
2022/04/19 02:23:51;;;;;;;4.73;4.27;;;;;;;;;;4997654;28;20216;-76
2022/04/19 02:26:23;;;;;;;4.77;4.30;;;;;;;;;;4988385;28;20270;-77
2022/04/19 02:28:51;;;;;;;5.57;4.33;;;;;;;;;;5001232;28;20356;-77
2022/04/19 02:31:25;;;;;;;5.80;4.67;;;;;;;;;;4983944;28;20702;-77
2022/04/19 02:33:58;;;;;;;6.53;4.37;;;;;;;;;;4989237;28;20247;-76
2022/04/19 02:36:25;;;;;;;6.67;4.87;;;;;;;;;;4997622;28;20212;-77
2022/04/19 02:38:51;;;;;;;6.60;4.70;;;;;;;;;;4986732;28;20690;-77
2022/04/19 02:41:19;;;;;;;6.13;4.83;;;;;;;;;;4993036;28;20720;-77
2022/04/19 02:43:50;;;;;;;6.00;4.40;;;;;;;;;;4991198;28;20223;-76
2022/04/19 02:46:16;;;;;;;5.67;4.77;;;;;;;;;;4995225;28;20280;-76
2022/04/19 02:48:50;;;;;;;5.57;4.63;;;;;;;;;;4998328;28;20229;-76
2022/04/19 02:51:16;;;;;;;5.90;4.73;;;;;;;;;;4992560;28;20556;-76
2022/04/19 02:53:43;;;;;;;8.87;4.90;;;;;;;;;;4987640;28;20232;-77
2022/04/19 02:56:10;;;;;;;6.77;5.07;;;;;;;;;;4986553;28;20218;-76
2022/04/19 02:58:36;;;;;;;7.20;4.90;;;;;;;;;;4999552;28;20598;-77
2022/04/19 03:01:02;;;;;;;7.03;4.50;;;;;;;;;;4992345;28;20361;-77
2022/04/19 03:03:30;;;;;;;7.07;4.63;;;;;;;;;;4985360;28;20220;-77
2022/04/19 03:05:57;;;;;;;5.93;4.90;;;;;;;;;;4987673;28;20219;-77
2022/04/19 03:08:28;;;;;;;7.93;4.97;;;;;;;;;;5009590;28;20224;-76
2022/04/19 03:10:55;;;;;;;6.73;5.10;;;;;;;;;;4993988;28;20304;-77
2022/04/19 03:13:20;;;;;;;5.23;4.50;;;;;;;;;;4999051;28;20319;-77
2022/04/19 03:15:46;;;;;;;8.43;4.87;;;;;;;;;;4989756;28;20285;-77
2022/04/19 03:18:12;;;;;;;5.33;4.63;;;;;;;;;;5005737;28;20226;-77
2022/04/19 03:20:37;;;;;;;5.90;4.70;;;;;;;;;;4989842;28;20224;-77
2022/04/19 03:29:06;;;;;;;5.97;4.63;;;;;;;;;;5022604;28;20269;-76
2022/04/19 03:31:39;;;;;;;4.77;4.23;;;;;;;;;;4989355;28;20220;-77
2022/04/19 03:34:05;;;;;;;5.63;4.60;;;;;;;;;;4975509;28;20362;-77
2022/04/19 03:36:34;;;;;;;4.67;4.03;;;;;;;;;;4985912;28;20212;-78
2022/04/19 03:39:02;;;;;;;5.67;4.40;;;;;;;;;;4995907;28;20617;-77
2022/04/19 03:41:47;;;;;;;5.23;3.90;;;;;;;;;;5018256;28;20589;-78
2022/04/19 03:44:12;;;;;;;6.50;4.40;;;;;;;;;;5000273;28;20219;-78
2022/04/19 03:49:39;;;;;;;6.40;4.50;;;;;;;;;;4985414;28;20224;-77
2022/04/19 03:52:08;;;;;;;5.97;4.50;;;;;;;;;;4994828;28;20216;-76
2022/04/19 03:54:34;;;;;;;7.60;4.60;;;;;;;;;;5014439;28;20698;-76
2022/04/19 03:57:06;;;;;;;6.07;4.73;;;;;;;;;;5010829;28;20215;-77
2022/04/19 03:59:33;;;;;;;5.57;3.97;;;;;;;;;;5013565;28;20227;-78
2022/04/19 04:02:02;;;;;;;7.23;4.87;;;;;;;;;;4987571;28;20716;-77
2022/04/19 04:04:31;;;;;;;6.90;4.40;;;;;;;;;;4973310;28;20307;-77
2022/04/19 04:07:00;;;;;;;6.10;4.37;;;;;;;;;;4990865;28;20282;-77
2022/04/19 04:09:32;;;;;;;6.77;4.60;;;;;;;;;;4981972;28;20298;-79
2022/04/19 04:12:05;;;;;;;7.20;4.67;;;;;;;;;;4982186;28;20221;-79
2022/04/19 04:14:32;;;;;;;6.20;4.87;;;;;;;;;;4989938;28;20228;-78
2022/04/19 04:16:59;;;;;;;7.67;5.00;;;;;;;;;;4992195;28;20350;-79
2022/04/19 04:19:25;;;;;;;6.30;5.20;;;;;;;;;;5000467;28;20220;-79
2022/04/19 04:21:53;;;;;;;6.90;4.80;;;;;;;;;;4997028;28;20215;-79
2022/04/19 04:24:22;;;;;;;5.37;4.87;;;;;;;;;;4988545;28;20328;-79
2022/04/19 04:26:47;;;;;;;6.27;4.87;;;;;;;;;;4988114;28;20713;-77
2022/04/19 04:29:16;;;;;;;6.37;4.90;;;;;;;;;;4988333;28;20220;-77
2022/04/19 04:31:43;;;;;;;5.93;5.00;;;;;;;;;;4987966;28;20730;-79
2022/04/19 04:34:14;;;;;;;7.13;5.10;;;;;;;;;;4985897;28;20307;-78
2022/04/19 04:36:46;;;;;;;5.77;5.17;;;;;;;;;;4983457;28;20720;-78
2022/04/19 04:39:17;;;;;;;6.67;5.10;;;;;;;;;;4985944;28;20224;-78
2022/04/19 04:42:03;;;;;;;7.43;5.30;;;;;;;;;;4997203;28;20223;-77
2022/04/19 04:44:30;;;;;;;6.03;5.43;;;;;;;;;;4986983;28;20324;-78
2022/04/19 04:49:48;;;;;;;5.97;5.13;;;;;;;;;;4963012;28;20303;-78
2022/04/19 04:52:18;;;;;;;6.87;5.30;;;;;;;;;;4984575;28;20209;-78
2022/04/19 04:54:45;;;;;;;7.37;5.20;;;;;;;;;;4986274;28;20315;-78
2022/04/19 04:57:18;;;;;;;6.13;4.77;;;;;;;;;;4987161;28;20212;-79
2022/04/19 04:59:44;;;;;;;7.77;5.10;;;;;;;;;;4987947;28;20227;-77
2022/04/19 05:02:10;;;;;;;6.27;5.37;;;;;;;;;;4996379;28;20208;-78
2022/04/19 05:04:37;;;;;;;5.90;5.10;;;;;;;;;;4993418;28;20219;-78
2022/04/19 05:07:04;;;;;;;5.63;5.03;;;;;;;;;;5001770;28;20250;-78
2022/04/19 05:09:36;;;;;;;7.27;4.33;;;;;;;;;;4989963;28;20231;-79
2022/04/19 05:12:07;;;;;;;5.07;4.57;;;;;;;;;;4988630;28;20251;-76
2022/04/19 05:14:35;;;;;;;6.20;4.00;;;;;;;;;;4993110;28;20228;-78
2022/04/19 05:17:01;;;;;;;6.00;4.27;;;;;;;;;;5000546;28;20215;-77
2022/04/19 05:19:29;;;;;;;5.43;4.20;;;;;;;;;;4999560;28;20224;-78
2022/04/19 05:21:54;;;;;;;5.90;4.33;;;;;;;;;;4998678;28;20221;-78
2022/04/19 05:24:20;;;;;;;4.67;4.10;;;;;;;;;;4998348;28;20249;-78
2022/04/19 05:26:46;;;;;;;6.20;4.13;;;;;;;;;;4993746;28;20220;-78
2022/04/19 05:29:11;;;;;;;5.87;3.83;;;;;;;;;;4983419;28;20584;-76
2022/04/19 05:31:40;;;;;;;6.57;4.00;;;;;;;;;;4994821;28;20600;-77
2022/04/19 05:34:10;;;;;;;6.90;3.73;;;;;;;;;;4997743;28;20232;-77
2022/04/19 05:36:36;;;;;;;4.43;3.63;;;;;;;;;;4996888;28;20685;-79
2022/04/19 05:39:03;;;;;;;3.93;3.47;;;;;;;;;;4984013;28;20713;-78
2022/04/19 05:41:31;;;;;;;4.80;3.17;;;;;;;;;;4993226;28;20737;-78
2022/04/19 05:43:56;;;;;;;3.50;3.20;;;;;;;;;;5000026;28;20223;-76
2022/04/19 05:46:23;;;;;;;5.50;3.63;;;;;;;;;;4995913;28;20244;-78
2022/04/19 05:48:51;;;;;;;3.33;3.00;;;;;;;;;;5000580;28;20227;-78
2022/04/19 05:51:16;;;;;;;4.97;3.17;;;;;;;;;;4984531;28;20285;-78
2022/04/19 05:53:42;;;;;;;4.70;3.00;;;;;;;;;;4984432;28;20240;-77
2022/04/19 05:56:11;;;;;;;3.63;3.23;;;;;;;;;;4985415;28;20243;-77
2022/04/19 05:58:36;;;;;;;4.50;2.90;;;;;;;;;;5000799;28;20307;-78
2022/04/19 06:01:02;;;;;;;3.30;2.57;;;;;;;;;;4983270;28;20224;-78
2022/04/19 06:06:22;;;;;;;3.30;2.73;;;;;;;;;;5006086;28;20706;-78
2022/04/19 06:08:53;;;;;;;3.27;2.70;;;;;;;;;;4986436;28;20641;-78
2022/04/19 06:11:21;;;;;;;3.97;2.77;;;;;;;;;;5001636;28;20224;-79
2022/04/19 06:13:47;;;;;;;2.90;2.60;;;;;;;;;;4987653;28;20239;-78
2022/04/19 06:16:13;;;;;;;3.80;2.83;;;;;;;;;;4999546;28;20638;-78
2022/04/19 06:18:44;;;;;;;3.90;2.50;;;;;;;;;;4991173;28;20212;-78
2022/04/19 06:21:19;;;;;;;3.60;2.80;;;;;;;;;;5013466;28;20307;-77
2022/04/19 06:23:45;;;;;;;3.77;2.63;;;;;;;;;;5013427;28;20307;-78
2022/04/19 06:26:10;;;;;;;2.83;2.60;;;;;;;;;;5002058;28;20220;-78
2022/04/19 06:28:38;;;;;;;2.93;2.60;;;;;;;;;;4998060;28;20235;-79
2022/04/19 06:31:24;;;;;;;4.43;2.57;;;;;;;;;;5021419;28;20231;-78
2022/04/19 06:34:06;;;;;;;3.27;2.70;;;;;;;;;;4989849;28;20231;-79
2022/04/19 06:36:53;;;;;;;2.60;2.40;;;;;;;;;;5012278;28;20242;-79
2022/04/19 06:39:23;;;;;;;2.37;2.00;;;;;;;;;;4983484;28;20699;-77
2022/04/19 06:41:50;;;;;;;2.10;1.80;;;;;;;;;;4988823;28;20225;-77
2022/04/19 06:44:17;;;;;;;2.63;2.10;;;;;;;;;;4993738;28;20317;-78
2022/04/19 06:46:47;;;;;;;6.10;2.07;;;;;;;;;;5017042;28;20216;-79
2022/04/19 06:49:14;;;;;;;2.13;1.90;;;;;;;;;;4990479;28;20224;-77
2022/04/19 06:51:40;;;;;;;2.97;2.37;;;;;;;;;;4988281;28;20904;-78
2022/04/19 06:54:09;;;;;;;2.57;2.23;;;;;;;;;;5004254;28;20633;-78
2022/04/19 06:56:45;;;;;;;2.40;2.20;;;;;;;;;;4991639;28;20223;-79
2022/04/19 06:59:12;;;;;;;4.43;2.20;;;;;;;;;;5012945;28;20279;-78
2022/04/19 07:01:40;;;;;;;2.40;2.20;;;;;;;;;;4996566;28;20254;-79
2022/04/19 07:04:41;;;;;;;4.27;2.33;;;;;;;;;;5009878;28;20211;-78
2022/04/19 07:07:10;;;;;;;3.13;2.30;;;;;;;;;;4995441;28;20240;-79
2022/04/19 07:09:41;;;;;;;2.37;1.80;;;;;;;;;;4971006;28;20292;-80
2022/04/19 07:12:09;;;;;;;3.03;2.33;;;;;;;;;;4982585;28;20295;-77
2022/04/19 07:14:42;;;;;;;2.63;2.03;;;;;;;;;;4984879;28;20228;-78
2022/04/19 07:17:10;;;;;;;2.57;2.13;;;;;;;;;;5004238;28;20224;-78
2022/04/19 07:28:03;;;;;;;2.10;1.83;;;;;;;;;;5003966;28;20220;-77
2022/04/19 07:30:35;;;;;;;2.40;1.57;;;;;;;;;;4968123;28;20223;-77
2022/04/19 07:33:02;;;;;;;2.30;1.90;;;;;;;;;;4983981;28;20220;-77
2022/04/19 07:35:33;;;;;;;2.13;1.70;;;;;;;;;;5023201;28;20219;-77
2022/04/19 07:37:59;;;;;;;2.93;1.70;;;;;;;;;;5008995;28;20216;-77
2022/04/19 07:40:36;;;;;;;3.20;1.70;;;;;;;;;;5031367;28;20224;-78
2022/04/19 07:43:04;;;;;;;3.23;1.60;;;;;;;;;;4997887;28;20271;-77
2022/04/19 07:45:32;;;;;;;2.40;1.70;;;;;;;;;;5029222;28;20221;-78
2022/04/19 07:47:57;;;;;;;2.47;1.60;;;;;;;;;;5015633;28;20255;-79
2022/04/19 07:50:26;;;;;;;1.80;1.70;;;;;;;;;;5018193;28;20221;-76
2022/04/19 07:52:54;;;;;;;1.87;1.70;;;;;;;;;;5027800;28;20212;-77
2022/04/19 07:55:20;;;;;;;3.20;1.80;;;;;;;;;;5007848;28;20224;-77
2022/04/19 07:57:45;;;;;;;2.07;1.47;;;;;;;;;;5027842;28;20255;-77
2022/04/19 08:00:11;;;;;;;1.50;1.40;;;;;;;;;;5011216;28;20216;-77
2022/04/19 08:02:47;;;;;;;3.23;1.40;;;;;;;;;;5031020;28;20234;-77
2022/04/19 08:05:16;;;;;;;2.30;1.60;;;;;;;;;;5004120;28;20608;-77
2022/04/19 08:07:42;;;;;;;2.30;1.40;;;;;;;;;;5020365;23;20224;-82
2022/04/19 08:10:08;;;;;;;2.67;1.50;;;;;;;;;;5018437;28;20220;-84
2022/04/19 08:12:34;;;;;;;1.77;1.30;;;;;;;;;;5015548;28;20220;-84
2022/04/19 08:14:59;;;;;;;1.87;1.30;;;;;;;;;;4986601;28;20800;-83
2022/04/19 08:17:28;;;;;;;1.43;1.20;;;;;;;;;;4994786;28;20300;-83
2022/04/19 08:19:56;;;;;;;2.90;1.50;;;;;;;;;;4986038;28;20279;-82
2022/04/19 08:22:23;;;;;;;2.30;1.40;;;;;;;;;;4985176;28;20228;-83
2022/04/19 08:24:57;;;;;;;2.00;1.40;;;;;;;;;;4986639;28;20263;-81
2022/04/19 08:27:23;;;;;;;1.73;1.30;;;;;;;;;;4984595;28;20213;-82
2022/04/19 08:29:48;;;;;;;2.47;1.33;;;;;;;;;;5001423;28;20231;-82
2022/04/19 08:32:14;;;;;;;1.30;1.20;;;;;;;;;;4992648;28;20324;-83
2022/04/19 08:34:40;;;;;;;1.60;1.30;;;;;;;;;;4986504;28;20390;-84
2022/04/19 08:37:09;;;;;;;1.23;1.10;;;;;;;;;;5001437;28;20890;-83
2022/04/19 08:39:36;;;;;;;2.03;1.00;;;;;;;;;;4987899;28;20224;-79
2022/04/19 08:42:04;;;;;;;1.07;0.97;;;;;;;;;;5014029;28;20228;-79
2022/04/19 08:44:29;;;;;;;2.17;1.00;;;;;;;;;;4997014;28;20247;-81
2022/04/19 08:46:57;;;;;;;1.77;1.27;;;;;;;;;;4997955;28;20266;-79
2022/04/19 08:49:23;;;;;;;1.53;1.10;;;;;;;;;;5030035;28;20233;-80
2022/04/19 08:51:48;;;;;;;2.87;1.07;;;;;;;;;;4998462;28;20366;-80
2022/04/19 08:59:42;;;;;;;1.13;1.00;;;;;;;;;;4994183;28;20235;-83
2022/04/19 09:02:07;;;;;;;0.83;0.80;;;;;;;;;;4983913;28;20220;-82
2022/04/19 09:04:35;;;;;;;1.33;0.83;;;;;;;;;;4984698;28;20221;-81
2022/04/19 09:07:00;;;;;;;0.87;0.80;;;;;;;;;;4988477;28;20771;-80
2022/04/19 09:09:28;;;;;;;1.10;1.00;;;;;;;;;;4982292;28;20228;-83
2022/04/19 09:12:07;;;;;;;1.97;0.93;;;;;;;;;;4983076;28;20640;-83
2022/04/19 09:14:32;;;;;;;2.43;1.23;;;;;;;;;;5004400;28;20239;-85
2022/04/19 09:17:05;;;;;;;1.03;0.90;;;;;;;;;;4992433;28;20217;-81
2022/04/19 09:19:33;;;;;;;1.10;1.00;;;;;;;;;;5007947;28;20243;-82
2022/04/19 09:22:00;;;;;;;1.03;0.80;;;;;;;;;;4996609;28;20217;-80
2022/04/19 09:24:26;;;;;;;0.87;0.80;;;;;;;;;;5013066;28;20225;-82
2022/04/19 09:26:54;;;;;;;0.97;0.97;;;;;;;;;;4992381;28;20593;-83
2022/04/19 09:34:45;;;;;;;1.27;1.10;;;;;;;;;;4998353;28;20252;-78
2022/04/19 09:37:12;;;;;;;1.87;0.87;;;;;;;;;;5040827;22;20777;-82
2022/04/19 09:39:38;;;;;;;1.23;1.13;;;;;;;;;;5001746;28;20221;-81
2022/04/19 09:42:05;;;;;;;1.40;0.90;;;;;;;;;;5014810;28;20240;-83
2022/04/19 09:44:36;;;;;;;1.33;0.90;;;;;;;;;;5001654;28;20224;-81
2022/04/19 09:47:04;;;;;;;0.77;0.70;;;;;;;;;;5017264;28;20217;-82
2022/04/19 09:49:46;;;;;;;1.83;0.90;;;;;;;;;;4994969;28;20208;-81
2022/04/19 09:52:13;;;;;;;1.95;0.93;;;;;;;;;;5025289;28;20227;-81
2022/04/19 09:54:40;;;;;;;1.23;0.80;;;;;;;;;;4997388;28;20237;-81
2022/04/19 09:57:11;;;;;;;1.50;0.90;;;;;;;;;;4986689;28;20599;-81
2022/04/19 09:59:44;;;;;;;1.50;1.00;;;;;;;;;;4997482;28;20304;-83
2022/04/19 10:10:24;;;;;;;1.93;0.90;;;;;;;;;;5009515;28;20221;-81
2022/04/19 10:12:51;;;;;;;1.13;1.03;;;;;;;;;;4978028;28;20319;-83
2022/04/19 10:15:16;;;;;;;1.67;0.90;;;;;;;;;;4993598;28;20938;-83
2022/04/19 10:17:42;;;;;;;0.85;0.70;;;;;;;;;;4995181;28;20221;-81
2022/04/19 10:20:08;;;;;;;1.65;0.80;;;;;;;;;;5022398;28;20213;-81
2022/04/19 10:22:35;;;;;;;0.98;0.80;;;;;;;;;;4980433;28;20229;-81
2022/04/19 10:25:06;;;;;;;3.03;0.90;;;;;;;;;;5005391;28;20221;-81
2022/04/19 10:27:31;;;;;;;1.40;0.82;;;;;;;;;;4981159;28;20255;-81
2022/04/19 10:29:57;;;;;;;1.30;0.80;;;;;;;;;;4980722;28;20231;-84
2022/04/19 10:32:33;;;;;;;0.87;0.67;;;;;;;;;;4995871;28;20237;-82
2022/04/19 10:35:00;;;;;;;1.35;0.95;;;;;;;;;;4986588;28;20232;-80
2022/04/19 10:37:26;;;;;;;1.38;0.70;;;;;;;;;;4983521;28;20308;-82
2022/04/19 10:40:01;;;;;;;0.90;0.70;;;;;;;;;;4988069;28;20469;-84
2022/04/19 10:42:33;;;;;;;4.07;0.80;;;;;;;;;;4999139;28;20251;-82
2022/04/19 10:45:18;;;;;;;0.90;0.60;;;;;;;;;;5011244;28;20225;-79
2022/04/19 10:47:58;;;;;;;2.13;1.10;;;;;;;;;;5008019;28;20219;-80
2022/04/19 10:50:28;;;;;;;1.55;1.00;;;;;;;;;;5012383;28;20221;-83
2022/04/19 10:52:58;;;;;;;2.15;0.95;;;;;;;;;;5003152;28;20275;-84
2022/04/19 10:55:27;;;;;;;1.13;0.70;;;;;;;;;;4982662;28;20278;-80
2022/04/19 10:58:24;;;;;;;0.75;0.70;;;;;;;;;;4998558;28;20231;-84
2022/04/19 11:00:57;;;;;;;0.80;0.80;;;;;;;;;;5023129;28;20236;-83
2022/04/19 11:03:33;;;;;;;1.23;0.60;;;;;;;;;;4990458;28;20697;-83
2022/04/19 11:06:03;;;;;;;1.60;0.80;;;;;;;;;;5019103;28;20287;-82
2022/04/19 11:08:32;;;;;;;2.05;0.73;;;;;;;;;;4992389;28;20225;-84
2022/04/19 11:10:57;;;;;;;0.75;0.60;;;;;;;;;;4997193;28;20225;-84
2022/04/19 11:13:27;;;;;;;0.60;0.60;;;;;;;;;;5011767;28;20721;-83
2022/04/19 11:16:13;;;;;;;1.80;0.73;;;;;;;;;;4988489;28;20444;-80
2022/04/19 11:18:41;;;;;;;1.08;0.75;;;;;;;;;;5006631;28;20304;-80
2022/04/19 11:21:07;;;;;;;1.00;0.60;;;;;;;;;;5001148;28;20225;-82
2022/04/19 11:23:44;;;;;;;1.35;0.70;;;;;;;;;;4997878;28;20647;-84
2022/04/19 11:26:24;;;;;;;0.55;0.52;;;;;;;;;;4994530;28;20221;-81
2022/04/19 11:29:08;;;;;;;0.57;0.50;;;;;;;;;;5021090;28;20235;-81
2022/04/19 11:31:37;;;;;;;0.52;0.52;;;;;;;;;;5003731;28;20225;-82
2022/04/19 11:34:12;;;;;;;1.20;0.70;;;;;;;;;;4997379;28;20761;-82
2022/04/19 11:36:37;;;;;;;0.68;0.50;;;;;;;;;;4990240;28;20763;-82
2022/04/19 11:39:03;;;;;;;2.05;0.63;;;;;;;;;;5001134;28;20232;-84
2022/04/19 11:46:51;;;;;;;0.70;0.50;;;;;;;;;;5002855;28;20216;-81
2022/04/19 11:49:19;;;;;;;0.90;0.50;;;;;;;;;;4993614;28;20220;-82
2022/04/19 11:51:49;;;;;;;0.50;0.50;;;;;;;;;;5014491;28;20225;-79
2022/04/19 11:54:20;;;;;;;0.88;0.40;;;;;;;;;;4996951;28;20341;-84
2022/04/19 11:57:05;;;;;;;0.70;0.50;;;;;;;;;;5009944;28;20702;-83
2022/04/19 11:59:33;;;;;;;0.55;0.55;;;;;;;;;;4997766;28;20609;-81
2022/04/19 12:01:59;;;;;;;1.52;0.60;;;;;;;;;;4998548;28;20216;-82
2022/04/19 12:04:27;;;;;;;1.65;0.52;;;;;;;;;;5000172;28;20307;-84
2022/04/19 12:06:53;;;;;;;0.75;0.60;;;;;;;;;;4990771;28;20212;-82
2022/04/19 12:09:18;;;;;;;0.70;0.70;;;;;;;;;;4995685;28;20221;-84
2022/04/19 12:11:47;;;;;;;0.52;0.50;;;;;;;;;;5010626;28;20599;-84
2022/04/19 12:14:31;;;;;;;1.23;0.55;;;;;;;;;;4984087;28;20232;-83
2022/04/19 12:17:01;;;;;;;0.52;0.50;;;;;;;;;;5005988;28;20224;-80
2022/04/19 12:19:35;;;;;;;0.57;0.57;;;;;;;;;;4984307;28;20213;-85
2022/04/19 12:22:12;;;;;;;0.60;0.45;;;;;;;;;;5006401;28;20229;-83
2022/04/19 12:24:38;;;;;;;0.60;0.60;;;;;;;;;;5010448;28;20283;-82
2022/04/19 12:27:06;;;;;;;0.60;0.52;;;;;;;;;;5005888;28;20228;-82
2022/04/19 12:29:55;;;;;;;0.63;0.60;;;;;;;;;;5014649;28;20274;-83
2022/04/19 12:32:20;;;;;;;0.52;0.50;;;;;;;;;;4975288;28;20267;-81
2022/04/19 12:34:49;;;;;;;0.85;0.50;;;;;;;;;;5008597;28;20233;-83
2022/04/19 12:37:18;;;;;;;0.52;0.52;;;;;;;;;;4991789;28;20221;-84
2022/04/19 12:39:59;;;;;;;0.88;0.50;;;;;;;;;;5000647;28;20634;-83
2022/04/19 12:42:25;;;;;;;0.65;0.50;;;;;;;;;;4982498;28;20228;-82
2022/04/19 12:45:07;;;;;;;1.25;0.50;;;;;;;;;;5002237;28;20216;-83
2022/04/19 12:47:33;;;;;;;0.55;0.50;;;;;;;;;;5008776;28;20605;-82
2022/04/19 12:50:13;;;;;;;0.75;0.63;;;;;;;;;;4999007;28;20217;-80
2022/04/19 12:52:38;;;;;;;1.27;0.60;;;;;;;;;;4979484;28;20228;-79
2022/04/19 12:55:04;;;;;;;0.75;0.50;;;;;;;;;;4983543;28;20220;-85
2022/04/19 12:57:30;;;;;;;0.82;0.50;;;;;;;;;;4998554;28;20224;-85
2022/04/19 12:59:57;;;;;;;1.27;0.60;;;;;;;;;;5000579;28;20716;-84
2022/04/19 13:02:23;;;;;;;1.23;0.55;;;;;;;;;;4990954;28;20241;-83
2022/04/19 13:04:49;;;;;;;0.47;0.47;;;;;;;;;;4985157;28;20221;-80
2022/04/19 13:13:08;;;;;;;1.95;0.63;;;;;;;;;;5009644;28;20732;-83
2022/04/19 13:15:36;;;;;;;0.60;0.40;;;;;;;;;;5014406;28;20224;-83
2022/04/19 13:18:02;;;;;;;0.40;0.40;;;;;;;;;;4984541;28;20242;-81
2022/04/19 13:20:30;;;;;;;0.60;0.60;;;;;;;;;;4984245;28;20217;-83
2022/04/19 13:22:55;;;;;;;0.60;0.50;;;;;;;;;;4973745;28;20754;-82
2022/04/19 13:25:21;;;;;;;0.50;0.50;;;;;;;;;;5014543;28;20307;-83
2022/04/19 13:27:50;;;;;;;0.57;0.55;;;;;;;;;;4983343;28;20224;-78
2022/04/19 13:30:19;;;;;;;0.88;0.60;;;;;;;;;;5000502;28;20223;-80
2022/04/19 13:32:45;;;;;;;0.75;0.65;;;;;;;;;;5007036;28;20244;-79
2022/04/19 13:35:11;;;;;;;0.50;0.50;;;;;;;;;;5022072;28;20263;-80
2022/04/19 13:40:20;;;;;;;0.70;0.63;;;;;;;;;;5017610;28;20223;-79
2022/04/19 13:42:46;;;;;;;1.02;0.70;;;;;;;;;;5010502;28;20249;-81
2022/04/19 13:45:12;;;;;;;2.15;0.80;;;;;;;;;;5016644;28;20216;-80
2022/04/19 13:47:40;;;;;;;1.08;0.75;;;;;;;;;;5018533;28;20303;-81
2022/04/19 13:50:08;;;;;;;0.70;0.60;;;;;;;;;;5003796;28;20224;-80
2022/04/19 13:52:36;;;;;;;1.08;0.60;;;;;;;;;;4999914;28;20233;-81
2022/04/19 13:55:02;;;;;;;2.08;0.70;;;;;;;;;;4996184;28;20309;-82
2022/04/19 13:57:27;;;;;;;2.17;0.68;;;;;;;;;;5014708;28;20221;-83
2022/04/19 13:59:55;;;;;;;0.73;0.63;;;;;;;;;;4999564;28;20213;-79
2022/04/19 14:02:25;;;;;;;0.57;0.55;;;;;;;;;;4998431;28;20234;-78
2022/04/19 14:04:50;;;;;;;0.93;0.60;;;;;;;;;;5005104;28;20360;-79
2022/04/19 14:07:19;;;;;;;0.68;0.60;;;;;;;;;;5008301;28;20225;-80
2022/04/19 14:09:47;;;;;;;0.60;0.60;;;;;;;;;;5017172;28;20228;-79
2022/04/19 14:12:12;;;;;;;0.65;0.60;;;;;;;;;;4997467;28;20225;-85
2022/04/19 14:14:42;;;;;;;0.70;0.70;;;;;;;;;;5005175;28;20233;-79
2022/04/19 14:17:08;;;;;;;1.95;0.80;;;;;;;;;;5006369;28;20231;-80
2022/04/19 14:19:35;;;;;;;1.00;0.70;;;;;;;;;;4990197;28;20248;-80
2022/04/19 14:22:03;;;;;;;0.70;0.70;;;;;;;;;;4992232;28;20255;-83
2022/04/19 14:24:29;;;;;;;0.70;0.70;;;;;;;;;;5008936;28;20291;-82
2022/04/19 14:26:55;;;;;;;0.82;0.80;;;;;;;;;;5023916;28;20662;-82
2022/04/19 14:34:53;;;;;;;0.95;0.82;;;;;;;;;;5008420;28;20233;-81
2022/04/19 14:37:19;;;;;;;0.70;0.70;;;;;;;;;;4965199;28;20248;-82
2022/04/19 14:39:44;;;;;;;3.08;1.13;;;;;;;;;;4981932;28;20320;-81
2022/04/19 14:42:13;;;;;;;1.10;1.00;;;;;;;;;;4999377;28;20255;-84
2022/04/19 14:44:41;;;;;;;1.10;0.80;;;;;;;;;;4997538;28;20240;-84
2022/04/19 14:47:07;;;;;;;2.53;0.90;;;;;;;;;;4983155;28;20251;-83
2022/04/19 14:49:32;;;;;;;1.90;0.90;;;;;;;;;;4996396;28;20682;-83
2022/04/19 14:52:18;;;;;;;2.90;0.75;;;;;;;;;;5015960;28;20232;-81
2022/04/19 14:54:45;;;;;;;1.85;0.80;;;;;;;;;;5005789;28;20231;-81
2022/04/19 14:57:14;;;;;;;1.05;0.80;;;;;;;;;;4987626;28;20217;-82
2022/04/19 14:59:46;;;;;;;1.40;1.02;;;;;;;;;;4996756;28;20244;-80
2022/04/19 15:02:15;;;;;;;1.10;1.00;;;;;;;;;;4993838;28;20220;-80
2022/04/19 15:04:43;;;;;;;1.55;0.90;;;;;;;;;;5002023;28;20232;-81
2022/04/19 15:07:09;;;;;;;1.02;0.82;;;;;;;;;;5002059;28;20221;-79
2022/04/19 15:09:37;;;;;;;1.15;0.90;;;;;;;;;;5012115;28;20216;-81
2022/04/19 15:12:02;;;;;;;1.92;1.08;;;;;;;;;;5013345;28;20248;-79
2022/04/19 15:14:30;;;;;;;1.23;1.00;;;;;;;;;;4987256;28;20399;-80
2022/04/19 15:16:56;;;;;;;1.25;1.05;;;;;;;;;;4985631;28;20332;-80
2022/04/19 15:19:21;;;;;;;1.00;1.00;;;;;;;;;;4984055;28;20252;-79
2022/04/19 15:21:47;;;;;;;3.05;1.00;;;;;;;;;;4987038;28;20292;-79
2022/04/19 15:24:15;;;;;;;1.85;1.13;;;;;;;;;;5003224;28;20244;-80
2022/04/19 15:26:47;;;;;;;2.75;0.90;;;;;;;;;;4992885;28;20255;-79
2022/04/19 15:29:17;;;;;;;1.13;0.88;;;;;;;;;;4995303;28;20288;-79
2022/04/19 15:31:42;;;;;;;2.63;1.17;;;;;;;;;;4996831;28;20239;-81
2022/04/19 15:34:08;;;;;;;3.58;1.10;;;;;;;;;;5008682;28;20253;-80
2022/04/19 15:36:34;;;;;;;5.65;1.00;;;;;;;;;;4980339;28;20259;-78
2022/04/19 15:39:00;;;;;;;1.63;1.00;;;;;;;;;;5025467;28;20292;-80
2022/04/19 15:41:28;;;;;;;2.25;0.90;;;;;;;;;;5007347;28;20224;-81
2022/04/19 15:43:54;;;;;;;1.88;1.00;;;;;;;;;;5011006;28;20221;-81
2022/04/19 15:46:24;;;;;;;1.60;1.10;;;;;;;;;;5000936;28;20765;-80
2022/04/19 15:48:52;;;;;;;1.92;0.95;;;;;;;;;;5010602;28;20216;-80
2022/04/19 15:51:20;;;;;;;1.15;1.00;;;;;;;;;;4995749;28;20249;-81
2022/04/19 15:53:47;;;;;;;1.27;1.00;;;;;;;;;;5014761;28;20944;-80
2022/04/19 15:56:13;;;;;;;1.30;0.90;;;;;;;;;;5000816;28;20303;-80
2022/04/19 15:58:41;;;;;;;1.10;1.00;;;;;;;;;;4994680;28;20290;-81